<?xml version="1.0" encoding="UTF-8" standalone="no" ?>
<gpx xmlns="http://www.topografix.com/GPX/1/1" xmlns:xsi="http://www.w3.org/2001/XMLSchema-instance" xsi:schemaLocation="http://www.topografix.com/GPX/1/1 http://www.topografix.com/GPX/1/1/gpx.xsd" version="1.1" creator="VisuGPX - https://www.visugpx.com">
  <metadata>
    <name>03: Sentier forestier - ravin de Moncourtet</name>
    <desc><![CDATA[03: Sentier forestier - ravin de Moncourtet]]></desc>
  </metadata>
  <wpt lat="43.83631" lon="3.12279">
    <ele>520</ele>
    <name><![CDATA[Accueil PdC Centre]]></name>
  </wpt>
  <wpt lat="43.83608" lon="3.12216">
    <ele>530.1</ele>
    <name><![CDATA[PCC]]></name>
  </wpt>
  <wpt lat="43.83043" lon="3.11691">
    <ele>575</ele>
    <name><![CDATA[SFA]]></name>
  </wpt>
  <wpt lat="43.83028" lon="3.11214">
    <ele>630</ele>
    <name><![CDATA[SFB]]></name>
  </wpt>
  <wpt lat="43.82912" lon="3.11547">
    <ele>644.9</ele>
    <name><![CDATA[RMX]]></name>
  </wpt>
  <wpt lat="43.8271" lon="3.1147">
    <ele>640.1</ele>
    <name><![CDATA[RMB]]></name>
  </wpt>
  <wpt lat="43.8336" lon="3.12054">
    <ele>555</ele>
    <name><![CDATA[RMA]]></name>
  </wpt>
  <wpt lat="43.83565" lon="3.12242">
    <ele>530.1</ele>
    <name><![CDATA[PCB]]></name>
  </wpt>
  <trk>
    <name><![CDATA[RoTr 03 PdC]]></name>
    <trkseg>
      <trkpt lat="43.83607" lon="3.12214">
        <ele>526</ele>
        <time>2010-01-01T00:00:00Z</time>
      </trkpt>
      <trkpt lat="43.83603" lon="3.12202">
        <ele>528</ele>
        <time>2010-01-01T00:00:18Z</time>
      </trkpt>
      <trkpt lat="43.83572" lon="3.12151">
        <ele>538</ele>
        <time>2010-01-01T00:01:51Z</time>
      </trkpt>
      <trkpt lat="43.8352" lon="3.1209">
        <ele>543</ele>
        <time>2010-01-01T00:04:03Z</time>
      </trkpt>
      <trkpt lat="43.8348" lon="3.12048">
        <ele>551</ele>
        <time>2010-01-01T00:05:41Z</time>
      </trkpt>
      <trkpt lat="43.83428" lon="3.12025">
        <ele>554</ele>
        <time>2010-01-01T00:07:26Z</time>
      </trkpt>
      <trkpt lat="43.83399" lon="3.12014">
        <ele>554</ele>
        <time>2010-01-01T00:08:26Z</time>
      </trkpt>
      <trkpt lat="43.83382" lon="3.12013">
        <ele>555</ele>
        <time>2010-01-01T00:08:58Z</time>
      </trkpt>
      <trkpt lat="43.83354" lon="3.11989">
        <ele>558</ele>
        <time>2010-01-01T00:10:03Z</time>
      </trkpt>
      <trkpt lat="43.83294" lon="3.11958">
        <ele>567</ele>
        <time>2010-01-01T00:12:07Z</time>
      </trkpt>
      <trkpt lat="43.83265" lon="3.11932">
        <ele>568</ele>
        <time>2010-01-01T00:13:14Z</time>
      </trkpt>
      <trkpt lat="43.83228" lon="3.11897">
        <ele>575</ele>
        <time>2010-01-01T00:14:41Z</time>
      </trkpt>
      <trkpt lat="43.83172" lon="3.11827">
        <ele>584</ele>
        <time>2010-01-01T00:17:09Z</time>
      </trkpt>
      <trkpt lat="43.83138" lon="3.11794">
        <ele>590</ele>
        <time>2010-01-01T00:18:29Z</time>
      </trkpt>
      <trkpt lat="43.83101" lon="3.11751">
        <ele>587</ele>
        <time>2010-01-01T00:20:02Z</time>
      </trkpt>
      <trkpt lat="43.83063" lon="3.11717">
        <ele>592</ele>
        <time>2010-01-01T00:21:31Z</time>
      </trkpt>
      <trkpt lat="43.8306" lon="3.11716">
        <ele>592</ele>
        <time>2010-01-01T00:21:36Z</time>
      </trkpt>
      <trkpt lat="43.83048" lon="3.1171">
        <ele>594</ele>
        <time>2010-01-01T00:22:01Z</time>
      </trkpt>
      <trkpt lat="43.83036" lon="3.11675">
        <ele>595</ele>
        <time>2010-01-01T00:22:55Z</time>
      </trkpt>
      <trkpt lat="43.83031" lon="3.11623">
        <ele>602</ele>
        <time>2010-01-01T00:24:09Z</time>
      </trkpt>
      <trkpt lat="43.83058" lon="3.11434">
        <ele>629</ele>
        <time>2010-01-01T00:28:39Z</time>
      </trkpt>
      <trkpt lat="43.83061" lon="3.11377">
        <ele>634</ele>
        <time>2010-01-01T00:29:59Z</time>
      </trkpt>
      <trkpt lat="43.83058" lon="3.11314">
        <ele>640</ele>
        <time>2010-01-01T00:31:27Z</time>
      </trkpt>
      <trkpt lat="43.83047" lon="3.11255">
        <ele>645</ele>
        <time>2010-01-01T00:32:52Z</time>
      </trkpt>
      <trkpt lat="43.8303" lon="3.11212">
        <ele>647</ele>
        <time>2010-01-01T00:34:02Z</time>
      </trkpt>
      <trkpt lat="43.83026" lon="3.11209">
        <ele>647</ele>
        <time>2010-01-01T00:34:10Z</time>
      </trkpt>
      <trkpt lat="43.8302" lon="3.1124">
        <ele>647</ele>
        <time>2010-01-01T00:34:54Z</time>
      </trkpt>
      <trkpt lat="43.8302" lon="3.11356">
        <ele>646</ele>
        <time>2010-01-01T00:37:37Z</time>
      </trkpt>
      <trkpt lat="43.83008" lon="3.11427">
        <ele>643</ele>
        <time>2010-01-01T00:39:19Z</time>
      </trkpt>
      <trkpt lat="43.82975" lon="3.11515">
        <ele>635</ele>
        <time>2010-01-01T00:41:38Z</time>
      </trkpt>
      <trkpt lat="43.8295" lon="3.1154">
        <ele>634</ele>
        <time>2010-01-01T00:42:39Z</time>
      </trkpt>
      <trkpt lat="43.82913" lon="3.11543">
        <ele>641</ele>
        <time>2010-01-01T00:43:49Z</time>
      </trkpt>
      <trkpt lat="43.8292" lon="3.11544">
        <ele>640</ele>
        <time>2010-01-01T00:44:01Z</time>
      </trkpt>
      <trkpt lat="43.82868" lon="3.11533">
        <ele>644</ele>
        <time>2010-01-01T00:45:43Z</time>
      </trkpt>
      <trkpt lat="43.82762" lon="3.11492">
        <ele>650</ele>
        <time>2010-01-01T00:49:16Z</time>
      </trkpt>
      <trkpt lat="43.82742" lon="3.11482">
        <ele>653</ele>
        <time>2010-01-01T00:49:58Z</time>
      </trkpt>
      <trkpt lat="43.82714" lon="3.11465">
        <ele>661</ele>
        <time>2010-01-01T00:50:58Z</time>
      </trkpt>
      <trkpt lat="43.8272" lon="3.11462">
        <ele>661</ele>
        <time>2010-01-01T00:51:11Z</time>
      </trkpt>
      <trkpt lat="43.82743" lon="3.11482">
        <ele>653</ele>
        <time>2010-01-01T00:52:04Z</time>
      </trkpt>
      <trkpt lat="43.82742" lon="3.11492">
        <ele>651</ele>
        <time>2010-01-01T00:52:18Z</time>
      </trkpt>
      <trkpt lat="43.82808" lon="3.11571">
        <ele>637</ele>
        <time>2010-01-01T00:55:07Z</time>
      </trkpt>
      <trkpt lat="43.82865" lon="3.11622">
        <ele>624</ele>
        <time>2010-01-01T00:57:18Z</time>
      </trkpt>
      <trkpt lat="43.83006" lon="3.11677">
        <ele>595</ele>
        <time>2010-01-01T01:02:03Z</time>
      </trkpt>
      <trkpt lat="43.8304" lon="3.11723">
        <ele>595</ele>
        <time>2010-01-01T01:03:36Z</time>
      </trkpt>
      <trkpt lat="43.83076" lon="3.11798">
        <ele>591</ele>
        <time>2010-01-01T01:05:41Z</time>
      </trkpt>
      <trkpt lat="43.83115" lon="3.11861">
        <ele>592</ele>
        <time>2010-01-01T01:07:39Z</time>
      </trkpt>
      <trkpt lat="43.83192" lon="3.11939">
        <ele>581</ele>
        <time>2010-01-01T01:10:43Z</time>
      </trkpt>
      <trkpt lat="43.83292" lon="3.12018">
        <ele>570</ele>
        <time>2010-01-01T01:14:27Z</time>
      </trkpt>
      <trkpt lat="43.83356" lon="3.12053">
        <ele>563</ele>
        <time>2010-01-01T01:16:42Z</time>
      </trkpt>
      <trkpt lat="43.83362" lon="3.12051">
        <ele>561</ele>
        <time>2010-01-01T01:16:53Z</time>
      </trkpt>
      <trkpt lat="43.83388" lon="3.12066">
        <ele>557</ele>
        <time>2010-01-01T01:17:48Z</time>
      </trkpt>
      <trkpt lat="43.83415" lon="3.12077">
        <ele>551</ele>
        <time>2010-01-01T01:18:42Z</time>
      </trkpt>
      <trkpt lat="43.83451" lon="3.12097">
        <ele>548</ele>
        <time>2010-01-01T01:19:58Z</time>
      </trkpt>
      <trkpt lat="43.83477" lon="3.12116">
        <ele>546</ele>
        <time>2010-01-01T01:20:55Z</time>
      </trkpt>
      <trkpt lat="43.83501" lon="3.12144">
        <ele>541</ele>
        <time>2010-01-01T01:21:56Z</time>
      </trkpt>
      <trkpt lat="43.83517" lon="3.12172">
        <ele>541</ele>
        <time>2010-01-01T01:22:46Z</time>
      </trkpt>
      <trkpt lat="43.83534" lon="3.12201">
        <ele>539</ele>
        <time>2010-01-01T01:23:39Z</time>
      </trkpt>
      <trkpt lat="43.83564" lon="3.12241">
        <ele>531</ele>
        <time>2010-01-01T01:24:58Z</time>
      </trkpt>
    </trkseg>
  </trk>
</gpx>